sensor_id;sensor_type;location;lat;lon;timestamp;P1;durP1;ratioP1;P2;durP2;ratioP2
15071;SDS011;7635;56.696;13.002;2023-03-03T00:01:12;7.27;;;3.87;;
15071;SDS011;7635;56.696;13.002;2023-03-03T00:03:39;7.73;;;4.80;;
15071;SDS011;7635;56.696;13.002;2023-03-03T00:06:07;4.10;;;2.97;;
15071;SDS011;7635;56.696;13.002;2023-03-03T00:08:35;3.40;;;2.77;;
15071;SDS011;7635;56.696;13.002;2023-03-03T00:11:03;3.43;;;2.23;;
15071;SDS011;7635;56.696;13.002;2023-03-03T00:13:32;2.23;;;2.00;;
15071;SDS011;7635;56.696;13.002;2023-03-03T00:16:10;1.90;;;1.70;;
15071;SDS011;7635;56.696;13.002;2023-03-03T00:18:40;2.80;;;2.00;;
15071;SDS011;7635;56.696;13.002;2023-03-03T00:21:14;2.40;;;1.97;;
15071;SDS011;7635;56.696;13.002;2023-03-03T00:23:53;2.20;;;1.90;;
15071;SDS011;7635;56.696;13.002;2023-03-03T00:26:22;2.37;;;1.70;;
15071;SDS011;7635;56.696;13.002;2023-03-03T00:28:52;2.33;;;1.67;;
15071;SDS011;7635;56.696;13.002;2023-03-03T00:31:22;1.63;;;1.53;;
15071;SDS011;7635;56.696;13.002;2023-03-03T00:33:52;1.83;;;1.70;;
15071;SDS011;7635;56.696;13.002;2023-03-03T00:36:30;1.60;;;1.50;;
15071;SDS011;7635;56.696;13.002;2023-03-03T00:39:16;2.03;;;1.73;;
15071;SDS011;7635;56.696;13.002;2023-03-03T00:41:47;3.37;;;2.10;;
15071;SDS011;7635;56.696;13.002;2023-03-03T00:44:38;3.47;;;1.77;;
15071;SDS011;7635;56.696;13.002;2023-03-03T00:47:18;1.97;;;1.77;;
15071;SDS011;7635;56.696;13.002;2023-03-03T00:49:51;1.97;;;1.60;;
15071;SDS011;7635;56.696;13.002;2023-03-03T00:52:18;2.13;;;1.83;;
15071;SDS011;7635;56.696;13.002;2023-03-03T00:54:45;1.93;;;1.67;;
15071;SDS011;7635;56.696;13.002;2023-03-03T00:57:13;1.63;;;1.53;;
15071;SDS011;7635;56.696;13.002;2023-03-03T00:59:40;2.13;;;1.90;;
15071;SDS011;7635;56.696;13.002;2023-03-03T01:02:07;2.20;;;1.90;;
15071;SDS011;7635;56.696;13.002;2023-03-03T01:04:33;3.07;;;1.90;;
15071;SDS011;7635;56.696;13.002;2023-03-03T01:07:00;2.13;;;1.93;;
15071;SDS011;7635;56.696;13.002;2023-03-03T01:09:27;2.73;;;2.40;;
15071;SDS011;7635;56.696;13.002;2023-03-03T01:11:54;2.83;;;2.00;;
15071;SDS011;7635;56.696;13.002;2023-03-03T01:14:23;2.10;;;1.90;;
15071;SDS011;7635;56.696;13.002;2023-03-03T01:16:49;1.80;;;1.70;;
15071;SDS011;7635;56.696;13.002;2023-03-03T01:19:18;2.10;;;1.90;;
15071;SDS011;7635;56.696;13.002;2023-03-03T01:21:45;1.77;;;1.60;;
15071;SDS011;7635;56.696;13.002;2023-03-03T01:24:11;1.97;;;1.80;;
15071;SDS011;7635;56.696;13.002;2023-03-03T01:26:38;2.50;;;2.10;;
15071;SDS011;7635;56.696;13.002;2023-03-03T01:29:05;2.10;;;1.90;;
15071;SDS011;7635;56.696;13.002;2023-03-03T01:31:33;2.07;;;1.50;;
15071;SDS011;7635;56.696;13.002;2023-03-03T01:34:00;2.27;;;1.80;;
15071;SDS011;7635;56.696;13.002;2023-03-03T01:36:27;1.90;;;1.70;;
15071;SDS011;7635;56.696;13.002;2023-03-03T01:38:54;2.60;;;2.07;;
15071;SDS011;7635;56.696;13.002;2023-03-03T01:41:21;3.70;;;2.57;;
15071;SDS011;7635;56.696;13.002;2023-03-03T01:43:48;4.57;;;2.83;;
15071;SDS011;7635;56.696;13.002;2023-03-03T01:46:34;6.97;;;3.90;;
15071;SDS011;7635;56.696;13.002;2023-03-03T01:49:17;4.70;;;3.03;;
15071;SDS011;7635;56.696;13.002;2023-03-03T01:51:48;4.67;;;3.23;;
15071;SDS011;7635;56.696;13.002;2023-03-03T01:54:20;4.97;;;3.30;;
15071;SDS011;7635;56.696;13.002;2023-03-03T01:56:50;4.53;;;3.50;;
15071;SDS011;7635;56.696;13.002;2023-03-03T01:59:21;5.37;;;3.33;;
15071;SDS011;7635;56.696;13.002;2023-03-03T02:01:52;5.73;;;3.60;;
15071;SDS011;7635;56.696;13.002;2023-03-03T02:04:18;4.30;;;2.97;;
15071;SDS011;7635;56.696;13.002;2023-03-03T02:06:46;3.77;;;2.50;;
15071;SDS011;7635;56.696;13.002;2023-03-03T02:09:19;6.90;;;3.17;;
15071;SDS011;7635;56.696;13.002;2023-03-03T02:11:53;2.47;;;2.20;;
15071;SDS011;7635;56.696;13.002;2023-03-03T02:14:24;8.67;;;2.90;;
15071;SDS011;7635;56.696;13.002;2023-03-03T02:16:52;5.07;;;2.80;;
15071;SDS011;7635;56.696;13.002;2023-03-03T02:19:20;6.37;;;2.70;;
15071;SDS011;7635;56.696;13.002;2023-03-03T02:21:53;4.20;;;2.83;;
15071;SDS011;7635;56.696;13.002;2023-03-03T02:24:22;5.10;;;2.73;;
15071;SDS011;7635;56.696;13.002;2023-03-03T02:26:52;4.77;;;2.63;;
15071;SDS011;7635;56.696;13.002;2023-03-03T02:29:19;5.03;;;2.43;;
15071;SDS011;7635;56.696;13.002;2023-03-03T02:31:46;2.73;;;2.00;;
15071;SDS011;7635;56.696;13.002;2023-03-03T02:34:13;2.87;;;2.13;;
15071;SDS011;7635;56.696;13.002;2023-03-03T02:36:40;4.73;;;2.30;;
15071;SDS011;7635;56.696;13.002;2023-03-03T02:39:07;3.03;;;1.90;;
15071;SDS011;7635;56.696;13.002;2023-03-03T02:41:38;2.90;;;2.10;;
15071;SDS011;7635;56.696;13.002;2023-03-03T02:44:10;3.63;;;2.30;;
15071;SDS011;7635;56.696;13.002;2023-03-03T02:46:39;4.00;;;2.00;;
15071;SDS011;7635;56.696;13.002;2023-03-03T02:49:08;3.90;;;2.20;;
15071;SDS011;7635;56.696;13.002;2023-03-03T02:51:36;4.27;;;2.10;;
15071;SDS011;7635;56.696;13.002;2023-03-03T02:54:03;2.80;;;2.03;;
15071;SDS011;7635;56.696;13.002;2023-03-03T02:56:31;2.17;;;1.97;;
15071;SDS011;7635;56.696;13.002;2023-03-03T02:58:58;2.77;;;2.10;;
15071;SDS011;7635;56.696;13.002;2023-03-03T03:01:26;1.93;;;1.73;;
15071;SDS011;7635;56.696;13.002;2023-03-03T03:03:53;3.30;;;2.07;;
15071;SDS011;7635;56.696;13.002;2023-03-03T03:06:20;4.57;;;2.30;;
15071;SDS011;7635;56.696;13.002;2023-03-03T03:08:46;3.93;;;2.57;;
15071;SDS011;7635;56.696;13.002;2023-03-03T03:11:13;3.53;;;2.30;;
15071;SDS011;7635;56.696;13.002;2023-03-03T03:13:40;3.10;;;2.27;;
15071;SDS011;7635;56.696;13.002;2023-03-03T03:16:07;3.90;;;2.70;;
15071;SDS011;7635;56.696;13.002;2023-03-03T03:18:35;5.60;;;2.20;;
15071;SDS011;7635;56.696;13.002;2023-03-03T03:21:05;3.50;;;2.37;;
15071;SDS011;7635;56.696;13.002;2023-03-03T03:23:33;3.47;;;1.97;;
15071;SDS011;7635;56.696;13.002;2023-03-03T03:25:59;1.90;;;1.63;;
15071;SDS011;7635;56.696;13.002;2023-03-03T03:28:26;2.50;;;2.10;;
15071;SDS011;7635;56.696;13.002;2023-03-03T03:30:53;2.93;;;2.10;;
15071;SDS011;7635;56.696;13.002;2023-03-03T03:33:20;2.63;;;2.30;;
15071;SDS011;7635;56.696;13.002;2023-03-03T03:35:49;3.37;;;2.47;;
15071;SDS011;7635;56.696;13.002;2023-03-03T03:38:16;2.87;;;2.10;;
15071;SDS011;7635;56.696;13.002;2023-03-03T03:40:43;4.40;;;2.00;;
15071;SDS011;7635;56.696;13.002;2023-03-03T03:43:10;2.67;;;2.30;;
15071;SDS011;7635;56.696;13.002;2023-03-03T03:45:36;3.40;;;2.03;;
15071;SDS011;7635;56.696;13.002;2023-03-03T03:48:03;3.13;;;2.07;;
15071;SDS011;7635;56.696;13.002;2023-03-03T03:50:30;2.07;;;1.87;;
15071;SDS011;7635;56.696;13.002;2023-03-03T03:52:58;2.00;;;1.70;;
15071;SDS011;7635;56.696;13.002;2023-03-03T03:55:25;2.20;;;1.87;;
15071;SDS011;7635;56.696;13.002;2023-03-03T03:57:52;1.77;;;1.63;;
15071;SDS011;7635;56.696;13.002;2023-03-03T04:00:18;2.63;;;2.10;;
15071;SDS011;7635;56.696;13.002;2023-03-03T04:02:45;2.50;;;1.97;;
15071;SDS011;7635;56.696;13.002;2023-03-03T04:05:12;2.50;;;2.03;;
15071;SDS011;7635;56.696;13.002;2023-03-03T04:07:39;3.33;;;2.30;;
15071;SDS011;7635;56.696;13.002;2023-03-03T04:10:08;2.90;;;2.37;;
15071;SDS011;7635;56.696;13.002;2023-03-03T04:12:35;2.50;;;2.10;;
15071;SDS011;7635;56.696;13.002;2023-03-03T04:15:04;2.90;;;2.27;;
15071;SDS011;7635;56.696;13.002;2023-03-03T04:17:31;2.80;;;2.10;;
15071;SDS011;7635;56.696;13.002;2023-03-03T04:19:58;4.43;;;2.20;;
15071;SDS011;7635;56.696;13.002;2023-03-03T04:22:26;3.13;;;2.30;;
15071;SDS011;7635;56.696;13.002;2023-03-03T04:24:54;8.33;;;3.37;;
15071;SDS011;7635;56.696;13.002;2023-03-03T04:27:22;5.13;;;2.70;;
15071;SDS011;7635;56.696;13.002;2023-03-03T04:29:48;5.53;;;3.03;;
15071;SDS011;7635;56.696;13.002;2023-03-03T04:32:15;4.50;;;2.63;;
15071;SDS011;7635;56.696;13.002;2023-03-03T04:34:42;2.27;;;2.07;;
15071;SDS011;7635;56.696;13.002;2023-03-03T04:37:09;1.83;;;1.63;;
15071;SDS011;7635;56.696;13.002;2023-03-03T04:39:36;2.30;;;1.80;;
15071;SDS011;7635;56.696;13.002;2023-03-03T04:42:03;2.30;;;2.10;;
15071;SDS011;7635;56.696;13.002;2023-03-03T04:44:31;5.60;;;3.60;;
15071;SDS011;7635;56.696;13.002;2023-03-03T04:46:57;5.07;;;3.03;;
15071;SDS011;7635;56.696;13.002;2023-03-03T04:49:24;4.17;;;2.60;;
15071;SDS011;7635;56.696;13.002;2023-03-03T04:51:51;4.77;;;2.80;;
15071;SDS011;7635;56.696;13.002;2023-03-03T04:54:17;3.03;;;2.50;;
15071;SDS011;7635;56.696;13.002;2023-03-03T04:56:44;2.63;;;2.17;;
15071;SDS011;7635;56.696;13.002;2023-03-03T04:59:11;4.40;;;2.63;;
15071;SDS011;7635;56.696;13.002;2023-03-03T05:01:39;4.10;;;2.13;;
15071;SDS011;7635;56.696;13.002;2023-03-03T05:04:06;3.67;;;2.50;;
15071;SDS011;7635;56.696;13.002;2023-03-03T05:06:33;4.27;;;2.50;;
15071;SDS011;7635;56.696;13.002;2023-03-03T05:08:59;3.47;;;2.20;;
15071;SDS011;7635;56.696;13.002;2023-03-03T05:11:26;3.87;;;2.20;;
15071;SDS011;7635;56.696;13.002;2023-03-03T05:13:53;2.30;;;1.67;;
15071;SDS011;7635;56.696;13.002;2023-03-03T05:16:20;2.40;;;2.10;;
15071;SDS011;7635;56.696;13.002;2023-03-03T05:18:48;2.20;;;1.87;;
15071;SDS011;7635;56.696;13.002;2023-03-03T05:21:15;2.27;;;1.90;;
15071;SDS011;7635;56.696;13.002;2023-03-03T05:23:41;4.07;;;2.60;;
15071;SDS011;7635;56.696;13.002;2023-03-03T05:26:08;2.00;;;1.67;;
15071;SDS011;7635;56.696;13.002;2023-03-03T05:28:35;4.13;;;2.00;;
15071;SDS011;7635;56.696;13.002;2023-03-03T05:31:02;3.87;;;2.20;;
15071;SDS011;7635;56.696;13.002;2023-03-03T05:33:28;4.20;;;2.53;;
15071;SDS011;7635;56.696;13.002;2023-03-03T05:35:56;3.17;;;2.00;;
15071;SDS011;7635;56.696;13.002;2023-03-03T05:38:23;4.20;;;2.40;;
15071;SDS011;7635;56.696;13.002;2023-03-03T05:40:50;3.13;;;2.37;;
15071;SDS011;7635;56.696;13.002;2023-03-03T05:43:18;3.50;;;2.23;;
15071;SDS011;7635;56.696;13.002;2023-03-03T05:45:45;3.80;;;2.40;;
15071;SDS011;7635;56.696;13.002;2023-03-03T05:48:12;2.43;;;2.23;;
15071;SDS011;7635;56.696;13.002;2023-03-03T05:50:39;2.90;;;2.57;;
15071;SDS011;7635;56.696;13.002;2023-03-03T05:53:07;2.87;;;2.23;;
15071;SDS011;7635;56.696;13.002;2023-03-03T05:55:33;4.67;;;2.50;;
15071;SDS011;7635;56.696;13.002;2023-03-03T05:58:00;3.37;;;2.07;;
15071;SDS011;7635;56.696;13.002;2023-03-03T06:00:27;3.43;;;2.23;;
15071;SDS011;7635;56.696;13.002;2023-03-03T06:02:53;4.57;;;2.40;;
15071;SDS011;7635;56.696;13.002;2023-03-03T06:05:20;2.47;;;2.10;;
15071;SDS011;7635;56.696;13.002;2023-03-03T06:07:47;2.77;;;2.10;;
15071;SDS011;7635;56.696;13.002;2023-03-03T06:10:15;3.23;;;2.00;;
15071;SDS011;7635;56.696;13.002;2023-03-03T06:12:42;2.27;;;1.83;;
15071;SDS011;7635;56.696;13.002;2023-03-03T06:15:09;2.93;;;2.07;;
15071;SDS011;7635;56.696;13.002;2023-03-03T06:17:36;2.37;;;2.07;;
15071;SDS011;7635;56.696;13.002;2023-03-03T06:20:03;2.43;;;2.00;;
15071;SDS011;7635;56.696;13.002;2023-03-03T06:22:31;3.10;;;2.10;;
15071;SDS011;7635;56.696;13.002;2023-03-03T06:24:58;2.57;;;1.83;;
15071;SDS011;7635;56.696;13.002;2023-03-03T06:27:26;2.83;;;1.83;;
15071;SDS011;7635;56.696;13.002;2023-03-03T06:29:53;4.13;;;2.30;;
15071;SDS011;7635;56.696;13.002;2023-03-03T06:32:19;3.63;;;2.57;;
15071;SDS011;7635;56.696;13.002;2023-03-03T06:34:46;3.23;;;2.20;;
15071;SDS011;7635;56.696;13.002;2023-03-03T06:37:13;2.13;;;1.80;;
15071;SDS011;7635;56.696;13.002;2023-03-03T06:39:40;3.73;;;2.30;;
15071;SDS011;7635;56.696;13.002;2023-03-03T06:42:06;2.77;;;2.00;;
15071;SDS011;7635;56.696;13.002;2023-03-03T06:44:35;2.73;;;2.03;;
15071;SDS011;7635;56.696;13.002;2023-03-03T06:47:01;4.07;;;2.37;;
15071;SDS011;7635;56.696;13.002;2023-03-03T06:49:29;4.00;;;2.20;;
15071;SDS011;7635;56.696;13.002;2023-03-03T06:51:56;2.47;;;2.10;;
15071;SDS011;7635;56.696;13.002;2023-03-03T06:54:26;2.40;;;2.20;;
15071;SDS011;7635;56.696;13.002;2023-03-03T06:56:57;2.90;;;2.00;;
15071;SDS011;7635;56.696;13.002;2023-03-03T06:59:29;2.60;;;2.10;;
15071;SDS011;7635;56.696;13.002;2023-03-03T07:01:57;2.20;;;2.00;;
15071;SDS011;7635;56.696;13.002;2023-03-03T07:04:24;4.40;;;2.30;;
15071;SDS011;7635;56.696;13.002;2023-03-03T07:06:54;1.80;;;1.57;;
15071;SDS011;7635;56.696;13.002;2023-03-03T07:09:23;2.97;;;2.07;;
15071;SDS011;7635;56.696;13.002;2023-03-03T07:11:51;2.20;;;1.90;;
15071;SDS011;7635;56.696;13.002;2023-03-03T07:14:18;3.77;;;1.87;;
15071;SDS011;7635;56.696;13.002;2023-03-03T07:16:46;2.60;;;2.13;;
15071;SDS011;7635;56.696;13.002;2023-03-03T07:19:22;2.13;;;1.93;;
15071;SDS011;7635;56.696;13.002;2023-03-03T07:21:55;2.63;;;1.90;;
15071;SDS011;7635;56.696;13.002;2023-03-03T07:24:24;1.70;;;1.60;;
15071;SDS011;7635;56.696;13.002;2023-03-03T07:26:53;2.37;;;1.80;;
15071;SDS011;7635;56.696;13.002;2023-03-03T07:29:25;2.30;;;1.83;;
15071;SDS011;7635;56.696;13.002;2023-03-03T07:31:54;2.43;;;1.90;;
15071;SDS011;7635;56.696;13.002;2023-03-03T07:34:23;2.23;;;1.83;;
15071;SDS011;7635;56.696;13.002;2023-03-03T07:36:56;2.23;;;1.70;;
15071;SDS011;7635;56.696;13.002;2023-03-03T07:39:27;2.10;;;1.87;;
15071;SDS011;7635;56.696;13.002;2023-03-03T07:41:59;2.20;;;1.83;;
15071;SDS011;7635;56.696;13.002;2023-03-03T07:44:39;1.67;;;1.43;;
15071;SDS011;7635;56.696;13.002;2023-03-03T07:47:14;2.57;;;1.80;;
15071;SDS011;7635;56.696;13.002;2023-03-03T07:49:51;2.37;;;1.90;;
15071;SDS011;7635;56.696;13.002;2023-03-03T07:52:22;2.47;;;1.87;;
15071;SDS011;7635;56.696;13.002;2023-03-03T07:54:52;2.47;;;1.70;;
15071;SDS011;7635;56.696;13.002;2023-03-03T07:57:21;2.67;;;2.03;;
15071;SDS011;7635;56.696;13.002;2023-03-03T07:59:51;1.60;;;1.50;;
15071;SDS011;7635;56.696;13.002;2023-03-03T08:02:28;1.93;;;1.70;;
15071;SDS011;7635;56.696;13.002;2023-03-03T08:08:01;2.50;;;1.70;;
15071;SDS011;7635;56.696;13.002;2023-03-03T08:10:46;2.10;;;1.87;;
15071;SDS011;7635;56.696;13.002;2023-03-03T08:13:15;2.63;;;1.87;;
15071;SDS011;7635;56.696;13.002;2023-03-03T08:15:44;3.93;;;2.20;;
15071;SDS011;7635;56.696;13.002;2023-03-03T08:21:01;2.07;;;1.87;;
15071;SDS011;7635;56.696;13.002;2023-03-03T08:23:31;2.00;;;1.77;;
15071;SDS011;7635;56.696;13.002;2023-03-03T08:25:58;2.83;;;2.20;;
15071;SDS011;7635;56.696;13.002;2023-03-03T08:28:24;2.53;;;1.67;;
15071;SDS011;7635;56.696;13.002;2023-03-03T08:30:51;2.23;;;1.80;;
15071;SDS011;7635;56.696;13.002;2023-03-03T08:33:18;2.17;;;1.97;;
15071;SDS011;7635;56.696;13.002;2023-03-03T08:35:45;2.80;;;1.90;;
15071;SDS011;7635;56.696;13.002;2023-03-03T08:38:14;2.63;;;2.00;;
15071;SDS011;7635;56.696;13.002;2023-03-03T08:40:42;1.73;;;1.60;;
15071;SDS011;7635;56.696;13.002;2023-03-03T08:43:09;1.57;;;1.43;;
15071;SDS011;7635;56.696;13.002;2023-03-03T08:45:41;2.93;;;1.93;;
15071;SDS011;7635;56.696;13.002;2023-03-03T08:48:07;2.73;;;1.93;;
15071;SDS011;7635;56.696;13.002;2023-03-03T08:50:35;2.37;;;1.80;;
15071;SDS011;7635;56.696;13.002;2023-03-03T08:53:02;1.97;;;1.80;;
15071;SDS011;7635;56.696;13.002;2023-03-03T08:55:31;2.30;;;1.83;;
15071;SDS011;7635;56.696;13.002;2023-03-03T08:57:57;2.87;;;2.07;;
15071;SDS011;7635;56.696;13.002;2023-03-03T09:00:24;2.80;;;2.10;;
15071;SDS011;7635;56.696;13.002;2023-03-03T09:02:51;3.40;;;2.00;;
15071;SDS011;7635;56.696;13.002;2023-03-03T09:05:19;2.53;;;1.73;;
15071;SDS011;7635;56.696;13.002;2023-03-03T09:07:47;3.10;;;1.87;;
15071;SDS011;7635;56.696;13.002;2023-03-03T09:10:16;1.53;;;1.43;;
15071;SDS011;7635;56.696;13.002;2023-03-03T09:12:48;1.60;;;1.37;;
15071;SDS011;7635;56.696;13.002;2023-03-03T09:15:19;2.13;;;1.93;;
15071;SDS011;7635;56.696;13.002;2023-03-03T09:17:48;2.53;;;1.90;;
15071;SDS011;7635;56.696;13.002;2023-03-03T09:23:16;2.27;;;2.03;;
15071;SDS011;7635;56.696;13.002;2023-03-03T09:25:54;3.50;;;2.40;;
15071;SDS011;7635;56.696;13.002;2023-03-03T09:28:23;2.63;;;2.10;;
15071;SDS011;7635;56.696;13.002;2023-03-03T09:30:52;3.27;;;2.37;;
15071;SDS011;7635;56.696;13.002;2023-03-03T09:33:24;1.77;;;1.67;;
15071;SDS011;7635;56.696;13.002;2023-03-03T09:35:53;2.93;;;2.30;;
15071;SDS011;7635;56.696;13.002;2023-03-03T09:38:28;4.50;;;2.73;;
15071;SDS011;7635;56.696;13.002;2023-03-03T09:44:00;5.60;;;3.13;;
15071;SDS011;7635;56.696;13.002;2023-03-03T09:46:50;4.07;;;3.00;;
15071;SDS011;7635;56.696;13.002;2023-03-03T09:49:30;5.13;;;3.50;;
15071;SDS011;7635;56.696;13.002;2023-03-03T09:52:02;5.30;;;3.27;;
15071;SDS011;7635;56.696;13.002;2023-03-03T09:54:51;3.40;;;2.70;;
15071;SDS011;7635;56.696;13.002;2023-03-03T09:57:25;5.23;;;2.30;;
15071;SDS011;7635;56.696;13.002;2023-03-03T10:00:11;2.93;;;2.27;;
15071;SDS011;7635;56.696;13.002;2023-03-03T10:02:50;3.33;;;2.73;;
15071;SDS011;7635;56.696;13.002;2023-03-03T10:05:31;3.83;;;2.77;;
15071;SDS011;7635;56.696;13.002;2023-03-03T10:08:14;3.53;;;2.53;;
15071;SDS011;7635;56.696;13.002;2023-03-03T10:10:53;2.83;;;2.10;;
15071;SDS011;7635;56.696;13.002;2023-03-03T10:13:36;3.17;;;2.20;;
15071;SDS011;7635;56.696;13.002;2023-03-03T10:19:34;3.43;;;2.40;;
15071;SDS011;7635;56.696;13.002;2023-03-03T10:22:06;2.83;;;1.97;;
15071;SDS011;7635;56.696;13.002;2023-03-03T10:24:45;2.73;;;2.40;;
15071;SDS011;7635;56.696;13.002;2023-03-03T10:27:27;2.73;;;1.93;;
15071;SDS011;7635;56.696;13.002;2023-03-03T10:30:06;2.63;;;1.70;;
15071;SDS011;7635;56.696;13.002;2023-03-03T10:32:39;3.10;;;2.47;;
15071;SDS011;7635;56.696;13.002;2023-03-03T10:35:20;2.03;;;1.83;;
15071;SDS011;7635;56.696;13.002;2023-03-03T10:37:57;4.17;;;2.30;;
15071;SDS011;7635;56.696;13.002;2023-03-03T10:40:35;3.53;;;2.10;;
15071;SDS011;7635;56.696;13.002;2023-03-03T10:43:20;3.27;;;1.93;;
15071;SDS011;7635;56.696;13.002;2023-03-03T10:46:09;2.30;;;2.10;;
15071;SDS011;7635;56.696;13.002;2023-03-03T10:48:47;2.50;;;2.10;;
15071;SDS011;7635;56.696;13.002;2023-03-03T10:51:32;2.77;;;2.07;;
15071;SDS011;7635;56.696;13.002;2023-03-03T10:54:14;2.67;;;2.33;;
15071;SDS011;7635;56.696;13.002;2023-03-03T10:56:55;1.90;;;1.73;;
15071;SDS011;7635;56.696;13.002;2023-03-03T10:59:30;2.20;;;2.00;;
15071;SDS011;7635;56.696;13.002;2023-03-03T11:02:07;2.57;;;2.00;;
15071;SDS011;7635;56.696;13.002;2023-03-03T11:04:43;2.00;;;1.80;;
15071;SDS011;7635;56.696;13.002;2023-03-03T11:07:23;2.20;;;2.00;;
15071;SDS011;7635;56.696;13.002;2023-03-03T11:09:57;2.17;;;1.77;;
15071;SDS011;7635;56.696;13.002;2023-03-03T11:12:33;2.13;;;1.63;;
15071;SDS011;7635;56.696;13.002;2023-03-03T11:18:22;2.47;;;1.70;;
15071;SDS011;7635;56.696;13.002;2023-03-03T11:21:00;1.90;;;1.73;;
15071;SDS011;7635;56.696;13.002;2023-03-03T11:23:41;1.40;;;1.30;;
15071;SDS011;7635;56.696;13.002;2023-03-03T11:26:23;1.93;;;1.73;;
15071;SDS011;7635;56.696;13.002;2023-03-03T11:29:18;1.63;;;1.53;;
15071;SDS011;7635;56.696;13.002;2023-03-03T11:31:55;1.40;;;1.30;;
15071;SDS011;7635;56.696;13.002;2023-03-03T11:34:30;2.30;;;1.50;;
15071;SDS011;7635;56.696;13.002;2023-03-03T11:37:09;1.63;;;1.50;;
15071;SDS011;7635;56.696;13.002;2023-03-03T11:39:44;1.50;;;1.40;;
15071;SDS011;7635;56.696;13.002;2023-03-03T11:42:13;1.40;;;1.30;;
15071;SDS011;7635;56.696;13.002;2023-03-03T11:44:51;1.10;;;1.10;;
15071;SDS011;7635;56.696;13.002;2023-03-03T11:47:21;1.60;;;1.47;;
15071;SDS011;7635;56.696;13.002;2023-03-03T11:49:52;1.37;;;1.27;;
15071;SDS011;7635;56.696;13.002;2023-03-03T11:52:24;1.83;;;1.40;;
15071;SDS011;7635;56.696;13.002;2023-03-03T11:55:00;1.60;;;1.50;;
15071;SDS011;7635;56.696;13.002;2023-03-03T11:57:34;1.50;;;1.40;;
15071;SDS011;7635;56.696;13.002;2023-03-03T12:00:15;1.60;;;1.40;;
15071;SDS011;7635;56.696;13.002;2023-03-03T12:05:45;1.50;;;1.40;;
15071;SDS011;7635;56.696;13.002;2023-03-03T12:08:22;2.00;;;1.80;;
15071;SDS011;7635;56.696;13.002;2023-03-03T12:11:04;2.87;;;2.10;;
15071;SDS011;7635;56.696;13.002;2023-03-03T12:13:39;3.17;;;2.13;;
15071;SDS011;7635;56.696;13.002;2023-03-03T12:16:16;3.33;;;2.63;;
15071;SDS011;7635;56.696;13.002;2023-03-03T12:18:52;4.07;;;2.80;;
15071;SDS011;7635;56.696;13.002;2023-03-03T12:21:42;3.80;;;2.70;;
15071;SDS011;7635;56.696;13.002;2023-03-03T12:24:23;2.03;;;1.67;;
15071;SDS011;7635;56.696;13.002;2023-03-03T12:27:00;1.63;;;1.53;;
15071;SDS011;7635;56.696;13.002;2023-03-03T12:29:40;2.00;;;1.63;;
15071;SDS011;7635;56.696;13.002;2023-03-03T12:32:14;3.47;;;2.10;;
15071;SDS011;7635;56.696;13.002;2023-03-03T12:34:52;3.40;;;2.00;;
15071;SDS011;7635;56.696;13.002;2023-03-03T12:37:26;1.50;;;1.40;;
15071;SDS011;7635;56.696;13.002;2023-03-03T12:40:08;2.80;;;1.83;;
15071;SDS011;7635;56.696;13.002;2023-03-03T12:42:47;1.87;;;1.70;;
15071;SDS011;7635;56.696;13.002;2023-03-03T12:45:30;2.17;;;1.83;;
15071;SDS011;7635;56.696;13.002;2023-03-03T12:48:06;1.80;;;1.67;;
15071;SDS011;7635;56.696;13.002;2023-03-03T12:50:36;2.90;;;1.60;;
15071;SDS011;7635;56.696;13.002;2023-03-03T12:53:17;1.90;;;1.50;;
15071;SDS011;7635;56.696;13.002;2023-03-03T12:56:03;2.27;;;1.87;;
15071;SDS011;7635;56.696;13.002;2023-03-03T12:58:39;1.60;;;1.50;;
15071;SDS011;7635;56.696;13.002;2023-03-03T13:01:18;2.93;;;1.90;;
15071;SDS011;7635;56.696;13.002;2023-03-03T13:03:57;2.00;;;1.80;;
15071;SDS011;7635;56.696;13.002;2023-03-03T13:06:30;1.93;;;1.77;;
15071;SDS011;7635;56.696;13.002;2023-03-03T13:09:01;1.63;;;1.50;;
15071;SDS011;7635;56.696;13.002;2023-03-03T13:11:44;2.03;;;1.70;;
15071;SDS011;7635;56.696;13.002;2023-03-03T13:14:23;2.10;;;1.90;;
15071;SDS011;7635;56.696;13.002;2023-03-03T13:17:00;2.20;;;2.00;;
15071;SDS011;7635;56.696;13.002;2023-03-03T13:19:34;2.00;;;1.90;;
15071;SDS011;7635;56.696;13.002;2023-03-03T13:22:06;2.33;;;2.07;;
15071;SDS011;7635;56.696;13.002;2023-03-03T13:24:40;2.37;;;2.17;;
15071;SDS011;7635;56.696;13.002;2023-03-03T13:27:17;2.83;;;2.53;;
15071;SDS011;7635;56.696;13.002;2023-03-03T13:29:52;2.33;;;2.10;;
15071;SDS011;7635;56.696;13.002;2023-03-03T13:32:26;2.40;;;1.70;;
15071;SDS011;7635;56.696;13.002;2023-03-03T13:35:02;2.20;;;1.70;;
15071;SDS011;7635;56.696;13.002;2023-03-03T13:37:34;1.43;;;1.30;;
15071;SDS011;7635;56.696;13.002;2023-03-03T13:40:05;1.70;;;1.60;;
15071;SDS011;7635;56.696;13.002;2023-03-03T13:42:41;1.80;;;1.70;;
15071;SDS011;7635;56.696;13.002;2023-03-03T13:45:14;1.90;;;1.67;;
15071;SDS011;7635;56.696;13.002;2023-03-03T13:47:46;2.70;;;1.77;;
15071;SDS011;7635;56.696;13.002;2023-03-03T13:50:20;1.33;;;1.23;;
15071;SDS011;7635;56.696;13.002;2023-03-03T13:52:57;2.00;;;1.50;;
15071;SDS011;7635;56.696;13.002;2023-03-03T13:55:50;2.13;;;1.73;;
15071;SDS011;7635;56.696;13.002;2023-03-03T13:58:23;2.10;;;1.90;;
15071;SDS011;7635;56.696;13.002;2023-03-03T14:01:00;2.10;;;1.70;;
15071;SDS011;7635;56.696;13.002;2023-03-03T14:03:38;1.97;;;1.87;;
15071;SDS011;7635;56.696;13.002;2023-03-03T14:06:14;1.50;;;1.40;;
15071;SDS011;7635;56.696;13.002;2023-03-03T14:08:48;1.67;;;1.57;;
15071;SDS011;7635;56.696;13.002;2023-03-03T14:11:22;1.10;;;1.10;;
15071;SDS011;7635;56.696;13.002;2023-03-03T14:13:57;1.60;;;1.47;;
15071;SDS011;7635;56.696;13.002;2023-03-03T14:16:34;1.30;;;1.20;;
15071;SDS011;7635;56.696;13.002;2023-03-03T14:19:08;1.60;;;1.20;;
15071;SDS011;7635;56.696;13.002;2023-03-03T14:21:42;1.50;;;1.37;;
15071;SDS011;7635;56.696;13.002;2023-03-03T14:24:15;1.40;;;1.30;;
15071;SDS011;7635;56.696;13.002;2023-03-03T14:26:44;1.10;;;1.00;;
15071;SDS011;7635;56.696;13.002;2023-03-03T14:29:15;1.70;;;1.60;;
15071;SDS011;7635;56.696;13.002;2023-03-03T14:31:48;2.33;;;1.50;;
15071;SDS011;7635;56.696;13.002;2023-03-03T14:34:29;1.63;;;1.53;;
15071;SDS011;7635;56.696;13.002;2023-03-03T14:37:18;1.70;;;1.60;;
15071;SDS011;7635;56.696;13.002;2023-03-03T14:42:45;2.77;;;1.90;;
15071;SDS011;7635;56.696;13.002;2023-03-03T14:45:20;2.00;;;1.87;;
15071;SDS011;7635;56.696;13.002;2023-03-03T14:47:57;2.97;;;2.10;;
15071;SDS011;7635;56.696;13.002;2023-03-03T14:50:31;2.93;;;2.03;;
15071;SDS011;7635;56.696;13.002;2023-03-03T14:53:03;2.53;;;1.70;;
15071;SDS011;7635;56.696;13.002;2023-03-03T14:55:36;3.33;;;2.20;;
15071;SDS011;7635;56.696;13.002;2023-03-03T14:58:07;3.03;;;2.17;;
15071;SDS011;7635;56.696;13.002;2023-03-03T15:00:49;2.33;;;1.70;;
15071;SDS011;7635;56.696;13.002;2023-03-03T15:03:19;3.33;;;2.10;;
15071;SDS011;7635;56.696;13.002;2023-03-03T15:05:47;3.57;;;2.60;;
15071;SDS011;7635;56.696;13.002;2023-03-03T15:08:15;3.20;;;2.37;;
15071;SDS011;7635;56.696;13.002;2023-03-03T15:10:52;4.20;;;2.47;;
15071;SDS011;7635;56.696;13.002;2023-03-03T15:13:28;3.27;;;2.47;;
15071;SDS011;7635;56.696;13.002;2023-03-03T15:16:03;2.77;;;1.77;;
15071;SDS011;7635;56.696;13.002;2023-03-03T15:18:49;3.00;;;2.50;;
15071;SDS011;7635;56.696;13.002;2023-03-03T15:21:36;6.00;;;2.83;;
15071;SDS011;7635;56.696;13.002;2023-03-03T15:24:09;3.90;;;2.33;;
15071;SDS011;7635;56.696;13.002;2023-03-03T15:26:46;3.17;;;2.53;;
15071;SDS011;7635;56.696;13.002;2023-03-03T15:29:20;2.80;;;2.30;;
15071;SDS011;7635;56.696;13.002;2023-03-03T15:31:51;4.57;;;2.93;;
15071;SDS011;7635;56.696;13.002;2023-03-03T15:34:27;1.77;;;1.67;;
15071;SDS011;7635;56.696;13.002;2023-03-03T15:37:03;3.53;;;2.47;;
15071;SDS011;7635;56.696;13.002;2023-03-03T15:39:41;2.73;;;2.50;;